This is the latest recevied weather packets stored in our database for station/object WW3TRG. If no packets are shown the sender has not sent any weather packets the latest 10 day(s).
| Time | Temp. | Humidity | Pressure | Rain* | Wind** | Luminosity | Snow |
|---|---|---|---|---|---|---|---|
| 1778198417 | 12.78° C | 67% | 1007.6 hPa | 0 mm | - | 0 W/m² | - |
| 1778198113 | 13.33° C | 68% | 1007.6 hPa | 0 mm | - | 0 W/m² | - |
| 1778197811 | 13.33° C | 68% | 1007.4 hPa | 0 mm | - | 2 W/m² | - |
| 1778197507 | 13.33° C | 67% | 1007.2 hPa | 0 mm | - | 4 W/m² | - |
| 1778197204 | 13.89° C | 67% | 1007.2 hPa | 0 mm | - | 9 W/m² | - |
| 1778196901 | 13.89° C | 63% | 1007.1 hPa | 0 mm | - | 11 W/m² | - |
| 1778196599 | 14.44° C | 63% | 1007.1 hPa | 0 mm | - | 15 W/m² | - |
| 1778196295 | 14.44° C | 61% | 1007.2 hPa | 0 mm | - | 16 W/m² | - |
| 1778195993 | 15° C | 54% | 1007.2 hPa | 0 mm | - | 18 W/m² | - |
| 1778195689 | 15° C | 62% | 1007.2 hPa | 0 mm | - | 16 W/m² | - |
| 1778195386 | 15° C | 52% | 1007 hPa | 0 mm | - | 24 W/m² | - |
| 1778195083 | 15.56° C | 50% | 1007.1 hPa | 0 mm | - | 26 W/m² | - |
| 1778194778 | 16.11° C | 43% | 1007.1 hPa | 0 mm | - | 24 W/m² | - |
| 1778194475 | 16.11° C | 46% | 1007.3 hPa | 0 mm | - | 28 W/m² | - |
| 1778194171 | 16.11° C | 43% | 1007 hPa | 0 mm | - | 31 W/m² | - |
| 1778193867 | 16.11° C | 43% | 1006.8 hPa | 0 mm | - | 35 W/m² | - |
| 1778193564 | 16.67° C | 41% | 1006.9 hPa | 0 mm | - | 38 W/m² | - |
| 1778193260 | 16.67° C | 40% | 1006.9 hPa | 0 mm | - | 44 W/m² | - |
| 1778192957 | 16.67° C | 40% | 1007.3 hPa | 0 mm | - | 57 W/m² | - |
| 1778192654 | 16.67° C | 39% | 1006.9 hPa | 0 mm | - | 61 W/m² | - |
| 1778192351 | 16.67° C | 39% | 1006.9 hPa | 0 mm | - | 64 W/m² | - |
| 1778192047 | 17.22° C | 39% | 1006.8 hPa | 0 mm | - | 72 W/m² | - |
| 1778191743 | 17.22° C | 40% | 1006.9 hPa | 0 mm | - | 79 W/m² | - |
| 1778191441 | 17.22° C | 38% | 1007.1 hPa | 0 mm | - | 65 W/m² | - |
| 1778191137 | 18.33° C | 38% | 1007 hPa | 0 mm | - | 111 W/m² | - |
* Rain latest hour (hover to see other rain measurements)
** Current wind speed in m/s (hover to see current wind gust speed)